Vancouver, Canada
Current Conditions -  °F | °C
As of 6:33 AM on Tuesday 21 Oct 2014 (Local Time) from CYVR Reporting Station
Light Rain Light Rain  
Wind Chill: 12°   Ceiling: 4500
Heat Index: 12°   Visibility: 12mi
Dew Point: 11°   Wind: 10mph
Humidity: 94%   Direction: 140°SE
Pressure: 29.8"   Gusts: NA
Location:  49.26°N, 123.11°W
Report Text: CYVR 211333Z 14009KT 12SM -RA FEW008 SCT038 BKN045 OVC052 12/11 A2980 RMK SF2SC2SC3SC1 SLP090
Loading
Personal Weather Stations






























Interactive Weather Map
Tropical Storm Tracking
New forecast layout! Learn more

10-Day Weather Forecast

Advertisements
Track Severe Weather on mobile